sensor_id;sensor_type;location;lat;lon;timestamp;P1;P2;P0
73623;PMS5003;61921;53.226;-1.296;2023-04-24T00:02:06;7;6;
73623;PMS5003;61921;53.226;-1.296;2023-04-24T00:04:32;11;7;
73623;PMS5003;61921;53.226;-1.296;2023-04-24T00:06:57;9;7;
73623;PMS5003;61921;53.226;-1.296;2023-04-24T00:09:24;7;6;
73623;PMS5003;61921;53.226;-1.296;2023-04-24T00:11:48;8;8;
73623;PMS5003;61921;53.226;-1.296;2023-04-24T00:14:14;10;6;
73623;PMS5003;61921;53.226;-1.296;2023-04-24T00:16:39;5;5;
73623;PMS5003;61921;53.226;-1.296;2023-04-24T00:19:05;7;5;
73623;PMS5003;61921;53.226;-1.296;2023-04-24T00:21:31;6;6;
73623;PMS5003;61921;53.226;-1.296;2023-04-24T00:23:56;6;6;
73623;PMS5003;61921;53.226;-1.296;2023-04-24T00:26:21;6;5;
73623;PMS5003;61921;53.226;-1.296;2023-04-24T00:28:47;8;7;
73623;PMS5003;61921;53.226;-1.296;2023-04-24T00:31:12;7;6;
73623;PMS5003;61921;53.226;-1.296;2023-04-24T00:33:38;7;6;
73623;PMS5003;61921;53.226;-1.296;2023-04-24T00:36:03;7;4;
73623;PMS5003;61921;53.226;-1.296;2023-04-24T00:38:29;10;5;
73623;PMS5003;61921;53.226;-1.296;2023-04-24T00:40:54;9;6;
73623;PMS5003;61921;53.226;-1.296;2023-04-24T00:43:20;6;5;
73623;PMS5003;61921;53.226;-1.296;2023-04-24T00:45:45;5;5;
73623;PMS5003;61921;53.226;-1.296;2023-04-24T00:48:11;6;5;
73623;PMS5003;61921;53.226;-1.296;2023-04-24T00:50:37;9;6;
73623;PMS5003;61921;53.226;-1.296;2023-04-24T00:53:02;5;5;
73623;PMS5003;61921;53.226;-1.296;2023-04-24T00:55:27;9;5;
73623;PMS5003;61921;53.226;-1.296;2023-04-24T00:57:53;5;4;
73623;PMS5003;61921;53.226;-1.296;2023-04-24T01:00:19;6;5;
73623;PMS5003;61921;53.226;-1.296;2023-04-24T01:02:44;5;5;
73623;PMS5003;61921;53.226;-1.296;2023-04-24T01:05:10;2;2;
73623;PMS5003;61921;53.226;-1.296;2023-04-24T01:07:35;5;4;
73623;PMS5003;61921;53.226;-1.296;2023-04-24T01:10:01;5;4;
73623;PMS5003;61921;53.226;-1.296;2023-04-24T01:12:26;4;4;
73623;PMS5003;61921;53.226;-1.296;2023-04-24T01:14:52;7;4;
73623;PMS5003;61921;53.226;-1.296;2023-04-24T01:17:18;3;3;
73623;PMS5003;61921;53.226;-1.296;2023-04-24T01:19:43;5;5;
73623;PMS5003;61921;53.226;-1.296;2023-04-24T01:22:10;7;5;
73623;PMS5003;61921;53.226;-1.296;2023-04-24T01:24:34;6;6;
73623;PMS5003;61921;53.226;-1.296;2023-04-24T01:27:00;6;5;
73623;PMS5003;61921;53.226;-1.296;2023-04-24T01:29:25;4;4;
73623;PMS5003;61921;53.226;-1.296;2023-04-24T01:31:51;6;6;
73623;PMS5003;61921;53.226;-1.296;2023-04-24T01:34:16;5;5;
73623;PMS5003;61921;53.226;-1.296;2023-04-24T01:36:42;8;6;
73623;PMS5003;61921;53.226;-1.296;2023-04-24T01:39:08;6;5;
73623;PMS5003;61921;53.226;-1.296;2023-04-24T01:41:33;7;5;
73623;PMS5003;61921;53.226;-1.296;2023-04-24T01:43:59;4;4;
73623;PMS5003;61921;53.226;-1.296;2023-04-24T01:46:24;6;5;
73623;PMS5003;61921;53.226;-1.296;2023-04-24T01:48:50;11;7;
73623;PMS5003;61921;53.226;-1.296;2023-04-24T01:51:15;4;4;
73623;PMS5003;61921;53.226;-1.296;2023-04-24T01:53:41;7;5;
73623;PMS5003;61921;53.226;-1.296;2023-04-24T01:56:06;5;5;
73623;PMS5003;61921;53.226;-1.296;2023-04-24T01:58:32;3;3;
73623;PMS5003;61921;53.226;-1.296;2023-04-24T02:00:58;4;4;
73623;PMS5003;61921;53.226;-1.296;2023-04-24T02:03:23;7;5;
73623;PMS5003;61921;53.226;-1.296;2023-04-24T02:05:49;5;5;
73623;PMS5003;61921;53.226;-1.296;2023-04-24T02:08:14;7;4;
73623;PMS5003;61921;53.226;-1.296;2023-04-24T02:10:40;7;5;
73623;PMS5003;61921;53.226;-1.296;2023-04-24T02:13:05;6;6;
73623;PMS5003;61921;53.226;-1.296;2023-04-24T02:15:31;5;5;
73623;PMS5003;61921;53.226;-1.296;2023-04-24T02:17:56;5;4;
73623;PMS5003;61921;53.226;-1.296;2023-04-24T02:20:22;4;4;
73623;PMS5003;61921;53.226;-1.296;2023-04-24T02:22:48;3;3;
73623;PMS5003;61921;53.226;-1.296;2023-04-24T02:25:14;4;4;
73623;PMS5003;61921;53.226;-1.296;2023-04-24T02:27:39;3;3;
73623;PMS5003;61921;53.226;-1.296;2023-04-24T02:30:05;4;4;
73623;PMS5003;61921;53.226;-1.296;2023-04-24T02:32:30;5;5;
73623;PMS5003;61921;53.226;-1.296;2023-04-24T02:34:56;5;4;
73623;PMS5003;61921;53.226;-1.296;2023-04-24T02:37:21;4;4;
73623;PMS5003;61921;53.226;-1.296;2023-04-24T02:39:47;5;5;
73623;PMS5003;61921;53.226;-1.296;2023-04-24T02:42:12;3;3;
73623;PMS5003;61921;53.226;-1.296;2023-04-24T02:44:38;7;4;
73623;PMS5003;61921;53.226;-1.296;2023-04-24T02:47:03;3;3;
73623;PMS5003;61921;53.226;-1.296;2023-04-24T02:49:29;4;4;
73623;PMS5003;61921;53.226;-1.296;2023-04-24T02:51:54;5;4;
73623;PMS5003;61921;53.226;-1.296;2023-04-24T02:54:20;3;3;
73623;PMS5003;61921;53.226;-1.296;2023-04-24T02:56:46;6;3;
73623;PMS5003;61921;53.226;-1.296;2023-04-24T02:59:11;5;3;
73623;PMS5003;61921;53.226;-1.296;2023-04-24T03:01:37;6;3;
73623;PMS5003;61921;53.226;-1.296;2023-04-24T03:04:02;4;4;
73623;PMS5003;61921;53.226;-1.296;2023-04-24T03:06:28;10;6;
73623;PMS5003;61921;53.226;-1.296;2023-04-24T03:08:54;8;5;
73623;PMS5003;61921;53.226;-1.296;2023-04-24T03:11:19;7;5;
73623;PMS5003;61921;53.226;-1.296;2023-04-24T03:13:45;5;5;
73623;PMS5003;61921;53.226;-1.296;2023-04-24T03:16:10;5;4;
73623;PMS5003;61921;53.226;-1.296;2023-04-24T03:18:36;5;3;
73623;PMS5003;61921;53.226;-1.296;2023-04-24T03:21:02;5;4;
73623;PMS5003;61921;53.226;-1.296;2023-04-24T03:23:27;2;2;
73623;PMS5003;61921;53.226;-1.296;2023-04-24T03:25:52;7;6;
73623;PMS5003;61921;53.226;-1.296;2023-04-24T03:28:18;3;2;
73623;PMS5003;61921;53.226;-1.296;2023-04-24T03:30:43;6;5;
73623;PMS5003;61921;53.226;-1.296;2023-04-24T03:33:09;5;5;
73623;PMS5003;61921;53.226;-1.296;2023-04-24T03:35:34;5;4;
73623;PMS5003;61921;53.226;-1.296;2023-04-24T03:38:00;6;5;
73623;PMS5003;61921;53.226;-1.296;2023-04-24T03:40:26;4;4;
73623;PMS5003;61921;53.226;-1.296;2023-04-24T03:42:51;4;4;
73623;PMS5003;61921;53.226;-1.296;2023-04-24T03:45:17;4;2;
73623;PMS5003;61921;53.226;-1.296;2023-04-24T03:47:42;3;3;
73623;PMS5003;61921;53.226;-1.296;2023-04-24T03:50:08;5;5;
73623;PMS5003;61921;53.226;-1.296;2023-04-24T03:52:33;4;4;
73623;PMS5003;61921;53.226;-1.296;2023-04-24T03:54:59;5;3;
73623;PMS5003;61921;53.226;-1.296;2023-04-24T03:57:24;6;5;
73623;PMS5003;61921;53.226;-1.296;2023-04-24T03:59:50;9;5;
73623;PMS5003;61921;53.226;-1.296;2023-04-24T04:02:16;5;4;
73623;PMS5003;61921;53.226;-1.296;2023-04-24T04:04:41;8;7;
73623;PMS5003;61921;53.226;-1.296;2023-04-24T04:07:07;6;5;
73623;PMS5003;61921;53.226;-1.296;2023-04-24T04:09:32;4;4;
73623;PMS5003;61921;53.226;-1.296;2023-04-24T04:11:58;4;4;
73623;PMS5003;61921;53.226;-1.296;2023-04-24T04:14:23;5;4;
73623;PMS5003;61921;53.226;-1.296;2023-04-24T04:16:48;6;5;
73623;PMS5003;61921;53.226;-1.296;2023-04-24T04:19:14;6;4;
73623;PMS5003;61921;53.226;-1.296;2023-04-24T04:21:40;6;4;
73623;PMS5003;61921;53.226;-1.296;2023-04-24T04:24:05;5;3;
73623;PMS5003;61921;53.226;-1.296;2023-04-24T04:26:31;3;2;
73623;PMS5003;61921;53.226;-1.296;2023-04-24T04:28:56;5;5;
73623;PMS5003;61921;53.226;-1.296;2023-04-24T04:31:22;8;4;
73623;PMS5003;61921;53.226;-1.296;2023-04-24T04:33:48;6;5;
73623;PMS5003;61921;53.226;-1.296;2023-04-24T04:36:13;3;3;
73623;PMS5003;61921;53.226;-1.296;2023-04-24T04:38:39;6;5;
73623;PMS5003;61921;53.226;-1.296;2023-04-24T04:41:04;3;3;
73623;PMS5003;61921;53.226;-1.296;2023-04-24T04:43:30;5;4;
73623;PMS5003;61921;53.226;-1.296;2023-04-24T04:45:56;6;4;
73623;PMS5003;61921;53.226;-1.296;2023-04-24T04:48:21;5;4;
73623;PMS5003;61921;53.226;-1.296;2023-04-24T04:50:46;6;4;
73623;PMS5003;61921;53.226;-1.296;2023-04-24T04:53:12;3;3;
73623;PMS5003;61921;53.226;-1.296;2023-04-24T04:55:38;4;4;
73623;PMS5003;61921;53.226;-1.296;2023-04-24T04:58:03;4;4;
73623;PMS5003;61921;53.226;-1.296;2023-04-24T05:00:29;7;4;
73623;PMS5003;61921;53.226;-1.296;2023-04-24T05:02:54;3;3;
73623;PMS5003;61921;53.226;-1.296;2023-04-24T05:05:20;5;5;
73623;PMS5003;61921;53.226;-1.296;2023-04-24T05:07:45;6;3;
73623;PMS5003;61921;53.226;-1.296;2023-04-24T05:10:11;7;6;
73623;PMS5003;61921;53.226;-1.296;2023-04-24T05:12:37;3;3;
73623;PMS5003;61921;53.226;-1.296;2023-04-24T05:15:03;7;4;
73623;PMS5003;61921;53.226;-1.296;2023-04-24T05:17:28;6;4;
73623;PMS5003;61921;53.226;-1.296;2023-04-24T05:19:53;6;4;
73623;PMS5003;61921;53.226;-1.296;2023-04-24T05:22:19;4;4;
73623;PMS5003;61921;53.226;-1.296;2023-04-24T05:24:45;5;3;
73623;PMS5003;61921;53.226;-1.296;2023-04-24T05:27:10;5;4;
73623;PMS5003;61921;53.226;-1.296;2023-04-24T05:29:36;6;4;
73623;PMS5003;61921;53.226;-1.296;2023-04-24T05:32:01;6;4;
73623;PMS5003;61921;53.226;-1.296;2023-04-24T05:34:27;5;5;
73623;PMS5003;61921;53.226;-1.296;2023-04-24T05:36:53;5;5;
73623;PMS5003;61921;53.226;-1.296;2023-04-24T05:39:18;2;2;
73623;PMS5003;61921;53.226;-1.296;2023-04-24T05:41:44;7;3;
73623;PMS5003;61921;53.226;-1.296;2023-04-24T05:44:09;5;4;
73623;PMS5003;61921;53.226;-1.296;2023-04-24T05:46:35;3;3;
73623;PMS5003;61921;53.226;-1.296;2023-04-24T05:49:01;6;5;
73623;PMS5003;61921;53.226;-1.296;2023-04-24T05:51:26;5;4;
73623;PMS5003;61921;53.226;-1.296;2023-04-24T05:53:51;5;4;
73623;PMS5003;61921;53.226;-1.296;2023-04-24T05:56:17;4;4;
73623;PMS5003;61921;53.226;-1.296;2023-04-24T05:58:42;7;5;
73623;PMS5003;61921;53.226;-1.296;2023-04-24T06:01:08;6;5;
73623;PMS5003;61921;53.226;-1.296;2023-04-24T06:03:34;4;4;
73623;PMS5003;61921;53.226;-1.296;2023-04-24T06:05:59;7;3;
73623;PMS5003;61921;53.226;-1.296;2023-04-24T06:08:25;7;5;
73623;PMS5003;61921;53.226;-1.296;2023-04-24T06:10:51;5;5;
73623;PMS5003;61921;53.226;-1.296;2023-04-24T06:13:16;11;6;
73623;PMS5003;61921;53.226;-1.296;2023-04-24T06:15:42;7;5;
73623;PMS5003;61921;53.226;-1.296;2023-04-24T06:18:07;12;9;
73623;PMS5003;61921;53.226;-1.296;2023-04-24T06:20:32;13;12;
73623;PMS5003;61921;53.226;-1.296;2023-04-24T06:22:58;7;6;
73623;PMS5003;61921;53.226;-1.296;2023-04-24T06:25:24;5;5;
73623;PMS5003;61921;53.226;-1.296;2023-04-24T06:27:49;8;5;
73623;PMS5003;61921;53.226;-1.296;2023-04-24T06:30:15;6;5;
73623;PMS5003;61921;53.226;-1.296;2023-04-24T06:32:40;7;5;
73623;PMS5003;61921;53.226;-1.296;2023-04-24T06:35:06;7;6;
73623;PMS5003;61921;53.226;-1.296;2023-04-24T06:37:31;4;4;
73623;PMS5003;61921;53.226;-1.296;2023-04-24T06:39:56;7;6;
73623;PMS5003;61921;53.226;-1.296;2023-04-24T06:42:22;8;6;
73623;PMS5003;61921;53.226;-1.296;2023-04-24T06:44:47;6;5;
73623;PMS5003;61921;53.226;-1.296;2023-04-24T06:47:13;5;5;
73623;PMS5003;61921;53.226;-1.296;2023-04-24T06:49:39;6;6;
73623;PMS5003;61921;53.226;-1.296;2023-04-24T06:52:04;7;5;
73623;PMS5003;61921;53.226;-1.296;2023-04-24T06:54:30;7;5;
73623;PMS5003;61921;53.226;-1.296;2023-04-24T06:56:55;7;6;
73623;PMS5003;61921;53.226;-1.296;2023-04-24T06:59:21;6;5;
73623;PMS5003;61921;53.226;-1.296;2023-04-24T07:01:47;15;14;
73623;PMS5003;61921;53.226;-1.296;2023-04-24T07:04:12;5;5;
73623;PMS5003;61921;53.226;-1.296;2023-04-24T07:06:38;8;7;
73623;PMS5003;61921;53.226;-1.296;2023-04-24T07:09:03;7;7;
73623;PMS5003;61921;53.226;-1.296;2023-04-24T07:11:29;7;5;
73623;PMS5003;61921;53.226;-1.296;2023-04-24T07:13:54;7;7;
73623;PMS5003;61921;53.226;-1.296;2023-04-24T07:16:20;6;6;
73623;PMS5003;61921;53.226;-1.296;2023-04-24T07:18:45;6;4;
73623;PMS5003;61921;53.226;-1.296;2023-04-24T07:21:11;8;7;
73623;PMS5003;61921;53.226;-1.296;2023-04-24T07:23:37;7;7;
73623;PMS5003;61921;53.226;-1.296;2023-04-24T07:26:02;9;6;
73623;PMS5003;61921;53.226;-1.296;2023-04-24T07:28:28;7;6;
73623;PMS5003;61921;53.226;-1.296;2023-04-24T07:30:53;5;5;
73623;PMS5003;61921;53.226;-1.296;2023-04-24T07:33:19;6;6;
73623;PMS5003;61921;53.226;-1.296;2023-04-24T07:35:44;17;8;
73623;PMS5003;61921;53.226;-1.296;2023-04-24T07:38:10;12;9;
73623;PMS5003;61921;53.226;-1.296;2023-04-24T07:40:36;14;9;
73623;PMS5003;61921;53.226;-1.296;2023-04-24T07:43:01;12;8;
73623;PMS5003;61921;53.226;-1.296;2023-04-24T07:45:26;10;10;
73623;PMS5003;61921;53.226;-1.296;2023-04-24T07:47:52;10;8;
73623;PMS5003;61921;53.226;-1.296;2023-04-24T07:50:17;14;9;
73623;PMS5003;61921;53.226;-1.296;2023-04-24T07:52:43;7;7;
73623;PMS5003;61921;53.226;-1.296;2023-04-24T07:55:08;9;9;
73623;PMS5003;61921;53.226;-1.296;2023-04-24T07:57:34;9;7;
73623;PMS5003;61921;53.226;-1.296;2023-04-24T07:59:59;16;11;
73623;PMS5003;61921;53.226;-1.296;2023-04-24T08:02:25;14;8;
73623;PMS5003;61921;53.226;-1.296;2023-04-24T08:04:51;9;8;
73623;PMS5003;61921;53.226;-1.296;2023-04-24T08:07:16;11;7;
73623;PMS5003;61921;53.226;-1.296;2023-04-24T08:09:41;9;9;
73623;PMS5003;61921;53.226;-1.296;2023-04-24T08:12:07;7;7;
73623;PMS5003;61921;53.226;-1.296;2023-04-24T08:14:32;9;7;
73623;PMS5003;61921;53.226;-1.296;2023-04-24T08:16:59;11;7;
73623;PMS5003;61921;53.226;-1.296;2023-04-24T08:19:23;7;7;
73623;PMS5003;61921;53.226;-1.296;2023-04-24T08:21:49;7;7;
73623;PMS5003;61921;53.226;-1.296;2023-04-24T08:24:14;8;8;
73623;PMS5003;61921;53.226;-1.296;2023-04-24T08:26:40;10;7;
73623;PMS5003;61921;53.226;-1.296;2023-04-24T08:29:05;11;7;
73623;PMS5003;61921;53.226;-1.296;2023-04-24T08:31:31;10;8;
73623;PMS5003;61921;53.226;-1.296;2023-04-24T08:33:57;8;8;
73623;PMS5003;61921;53.226;-1.296;2023-04-24T08:36:22;9;7;
73623;PMS5003;61921;53.226;-1.296;2023-04-24T08:38:47;8;8;
73623;PMS5003;61921;53.226;-1.296;2023-04-24T08:41:12;12;8;
73623;PMS5003;61921;53.226;-1.296;2023-04-24T08:43:38;10;7;
73623;PMS5003;61921;53.226;-1.296;2023-04-24T08:46:04;11;9;
73623;PMS5003;61921;53.226;-1.296;2023-04-24T08:48:29;10;9;
73623;PMS5003;61921;53.226;-1.296;2023-04-24T08:50:54;8;6;
73623;PMS5003;61921;53.226;-1.296;2023-04-24T08:53:19;8;8;
73623;PMS5003;61921;53.226;-1.296;2023-04-24T08:55:46;10;7;
73623;PMS5003;61921;53.226;-1.296;2023-04-24T08:58:10;10;9;
73623;PMS5003;61921;53.226;-1.296;2023-04-24T09:00:36;10;9;
73623;PMS5003;61921;53.226;-1.296;2023-04-24T09:03:02;11;10;
73623;PMS5003;61921;53.226;-1.296;2023-04-24T09:05:26;9;8;
73623;PMS5003;61921;53.226;-1.296;2023-04-24T09:07:53;9;9;
73623;PMS5003;61921;53.226;-1.296;2023-04-24T09:10:17;8;8;
73623;PMS5003;61921;53.226;-1.296;2023-04-24T09:12:43;13;12;
73623;PMS5003;61921;53.226;-1.296;2023-04-24T09:15:08;11;10;
73623;PMS5003;61921;53.226;-1.296;2023-04-24T09:17:34;12;10;
73623;PMS5003;61921;53.226;-1.296;2023-04-24T09:19:59;8;6;
73623;PMS5003;61921;53.226;-1.296;2023-04-24T09:22:24;13;10;
73623;PMS5003;61921;53.226;-1.296;2023-04-24T09:27:16;12;9;
73623;PMS5003;61921;53.226;-1.296;2023-04-24T09:34:32;14;10;
73623;PMS5003;61921;53.226;-1.296;2023-04-24T09:36:57;11;10;
73623;PMS5003;61921;53.226;-1.296;2023-04-24T09:39:22;11;9;
73623;PMS5003;61921;53.226;-1.296;2023-04-24T09:41:49;11;11;
73623;PMS5003;61921;53.226;-1.296;2023-04-24T09:44:14;9;8;
73623;PMS5003;61921;53.226;-1.296;2023-04-24T09:46:38;15;14;
73623;PMS5003;61921;53.226;-1.296;2023-04-24T09:49:07;11;10;
73623;PMS5003;61921;53.226;-1.296;2023-04-24T09:51:33;13;9;
73623;PMS5003;61921;53.226;-1.296;2023-04-24T09:53:55;8;7;
73623;PMS5003;61921;53.226;-1.296;2023-04-24T09:56:20;9;8;
73623;PMS5003;61921;53.226;-1.296;2023-04-24T09:58:46;8;8;
73623;PMS5003;61921;53.226;-1.296;2023-04-24T10:01:11;8;7;
73623;PMS5003;61921;53.226;-1.296;2023-04-24T10:03:37;10;7;
73623;PMS5003;61921;53.226;-1.296;2023-04-24T10:06:02;7;7;
73623;PMS5003;61921;53.226;-1.296;2023-04-24T10:08:33;12;11;
73623;PMS5003;61921;53.226;-1.296;2023-04-24T10:10:53;14;13;
73623;PMS5003;61921;53.226;-1.296;2023-04-24T10:13:19;10;9;
73623;PMS5003;61921;53.226;-1.296;2023-04-24T10:15:44;10;9;
73623;PMS5003;61921;53.226;-1.296;2023-04-24T10:18:10;12;10;
73623;PMS5003;61921;53.226;-1.296;2023-04-24T10:20:35;9;8;
73623;PMS5003;61921;53.226;-1.296;2023-04-24T10:23:03;8;7;
73623;PMS5003;61921;53.226;-1.296;2023-04-24T10:25:26;12;10;
73623;PMS5003;61921;53.226;-1.296;2023-04-24T10:27:52;8;7;
73623;PMS5003;61921;53.226;-1.296;2023-04-24T10:30:17;10;9;
73623;PMS5003;61921;53.226;-1.296;2023-04-24T10:32:42;9;7;
73623;PMS5003;61921;53.226;-1.296;2023-04-24T10:35:08;6;6;
73623;PMS5003;61921;53.226;-1.296;2023-04-24T10:37:34;7;7;
73623;PMS5003;61921;53.226;-1.296;2023-04-24T10:39:58;11;10;
73623;PMS5003;61921;53.226;-1.296;2023-04-24T10:42:23;9;9;
73623;PMS5003;61921;53.226;-1.296;2023-04-24T10:44:49;11;8;
73623;PMS5003;61921;53.226;-1.296;2023-04-24T10:47:14;9;7;
73623;PMS5003;61921;53.226;-1.296;2023-04-24T10:49:39;9;8;
73623;PMS5003;61921;53.226;-1.296;2023-04-24T10:52:05;8;8;
73623;PMS5003;61921;53.226;-1.296;2023-04-24T10:54:34;13;9;
73623;PMS5003;61921;53.226;-1.296;2023-04-24T10:59:25;10;7;
73623;PMS5003;61921;53.226;-1.296;2023-04-24T11:01:51;11;10;
73623;PMS5003;61921;53.226;-1.296;2023-04-24T11:04:12;11;8;
73623;PMS5003;61921;53.226;-1.296;2023-04-24T11:06:37;20;17;
73623;PMS5003;61921;53.226;-1.296;2023-04-24T11:09:03;8;8;
73623;PMS5003;61921;53.226;-1.296;2023-04-24T11:11:28;11;10;
73623;PMS5003;61921;53.226;-1.296;2023-04-24T11:14:03;10;10;
73623;PMS5003;61921;53.226;-1.296;2023-04-24T11:16:21;6;6;
73623;PMS5003;61921;53.226;-1.296;2023-04-24T11:18:44;9;9;
73623;PMS5003;61921;53.226;-1.296;2023-04-24T11:21:11;7;7;
73623;PMS5003;61921;53.226;-1.296;2023-04-24T11:23:35;12;12;
73623;PMS5003;61921;53.226;-1.296;2023-04-24T11:28:27;14;12;
73623;PMS5003;61921;53.226;-1.296;2023-04-24T11:30:52;12;9;
73623;PMS5003;61921;53.226;-1.296;2023-04-24T11:33:19;8;8;
73623;PMS5003;61921;53.226;-1.296;2023-04-24T11:35:42;8;8;
73623;PMS5003;61921;53.226;-1.296;2023-04-24T11:38:08;8;7;
73623;PMS5003;61921;53.226;-1.296;2023-04-24T11:40:33;8;8;
73623;PMS5003;61921;53.226;-1.296;2023-04-24T11:42:59;10;8;
73623;PMS5003;61921;53.226;-1.296;2023-04-24T11:45:24;12;11;
73623;PMS5003;61921;53.226;-1.296;2023-04-24T11:47:49;13;9;
73623;PMS5003;61921;53.226;-1.296;2023-04-24T11:50:15;14;11;
73623;PMS5003;61921;53.226;-1.296;2023-04-24T11:52:40;11;10;
73623;PMS5003;61921;53.226;-1.296;2023-04-24T11:55:06;11;9;
73623;PMS5003;61921;53.226;-1.296;2023-04-24T11:57:30;9;9;
73623;PMS5003;61921;53.226;-1.296;2023-04-24T11:59:56;8;7;
73623;PMS5003;61921;53.226;-1.296;2023-04-24T12:02:22;11;10;
73623;PMS5003;61921;53.226;-1.296;2023-04-24T12:04:46;10;9;
73623;PMS5003;61921;53.226;-1.296;2023-04-24T12:07:12;9;8;
73623;PMS5003;61921;53.226;-1.296;2023-04-24T12:09:41;11;8;
73623;PMS5003;61921;53.226;-1.296;2023-04-24T12:12:02;10;10;
73623;PMS5003;61921;53.226;-1.296;2023-04-24T12:14:28;13;10;
73623;PMS5003;61921;53.226;-1.296;2023-04-24T12:16:53;13;9;
73623;PMS5003;61921;53.226;-1.296;2023-04-24T12:19:20;10;9;
73623;PMS5003;61921;53.226;-1.296;2023-04-24T12:21:44;11;10;
73623;PMS5003;61921;53.226;-1.296;2023-04-24T12:24:09;9;9;
73623;PMS5003;61921;53.226;-1.296;2023-04-24T12:26:34;10;9;
73623;PMS5003;61921;53.226;-1.296;2023-04-24T12:29:01;8;8;
73623;PMS5003;61921;53.226;-1.296;2023-04-24T12:31:25;10;8;
73623;PMS5003;61921;53.226;-1.296;2023-04-24T12:33:50;12;11;
73623;PMS5003;61921;53.226;-1.296;2023-04-24T12:36:16;9;8;
73623;PMS5003;61921;53.226;-1.296;2023-04-24T12:38:43;7;6;
73623;PMS5003;61921;53.226;-1.296;2023-04-24T12:41:07;8;7;
73623;PMS5003;61921;53.226;-1.296;2023-04-24T12:43:33;10;6;
73623;PMS5003;61921;53.226;-1.296;2023-04-24T12:45:57;7;7;
73623;PMS5003;61921;53.226;-1.296;2023-04-24T12:48:23;8;6;
73623;PMS5003;61921;53.226;-1.296;2023-04-24T12:50:49;8;7;
73623;PMS5003;61921;53.226;-1.296;2023-04-24T12:53:14;9;8;
73623;PMS5003;61921;53.226;-1.296;2023-04-24T12:55:40;8;7;
73623;PMS5003;61921;53.226;-1.296;2023-04-24T12:58:05;8;8;
73623;PMS5003;61921;53.226;-1.296;2023-04-24T13:00:30;10;7;
73623;PMS5003;61921;53.226;-1.296;2023-04-24T13:02:56;9;7;
73623;PMS5003;61921;53.226;-1.296;2023-04-24T13:05:21;7;6;
73623;PMS5003;61921;53.226;-1.296;2023-04-24T13:07:46;8;8;
73623;PMS5003;61921;53.226;-1.296;2023-04-24T13:10:12;7;7;
73623;PMS5003;61921;53.226;-1.296;2023-04-24T13:12:37;8;5;
73623;PMS5003;61921;53.226;-1.296;2023-04-24T13:15:03;9;7;
73623;PMS5003;61921;53.226;-1.296;2023-04-24T13:17:28;7;7;
73623;PMS5003;61921;53.226;-1.296;2023-04-24T13:19:54;8;7;
73623;PMS5003;61921;53.226;-1.296;2023-04-24T13:22:20;6;6;
73623;PMS5003;61921;53.226;-1.296;2023-04-24T13:24:45;7;7;
73623;PMS5003;61921;53.226;-1.296;2023-04-24T13:27:11;12;8;
73623;PMS5003;61921;53.226;-1.296;2023-04-24T13:29:36;9;8;
73623;PMS5003;61921;53.226;-1.296;2023-04-24T13:32:01;8;7;
73623;PMS5003;61921;53.226;-1.296;2023-04-24T13:34:27;7;6;
73623;PMS5003;61921;53.226;-1.296;2023-04-24T13:36:52;6;6;
73623;PMS5003;61921;53.226;-1.296;2023-04-24T13:39:18;12;7;
73623;PMS5003;61921;53.226;-1.296;2023-04-24T13:41:43;9;6;
73623;PMS5003;61921;53.226;-1.296;2023-04-24T13:44:08;7;7;
73623;PMS5003;61921;53.226;-1.296;2023-04-24T13:46:34;8;8;
73623;PMS5003;61921;53.226;-1.296;2023-04-24T13:48:59;9;8;
73623;PMS5003;61921;53.226;-1.296;2023-04-24T13:51:25;9;7;
73623;PMS5003;61921;53.226;-1.296;2023-04-24T13:53:50;8;7;
73623;PMS5003;61921;53.226;-1.296;2023-04-24T13:56:15;11;6;
73623;PMS5003;61921;53.226;-1.296;2023-04-24T13:58:41;7;6;
73623;PMS5003;61921;53.226;-1.296;2023-04-24T14:01:06;10;8;
73623;PMS5003;61921;53.226;-1.296;2023-04-24T14:03:32;9;9;
73623;PMS5003;61921;53.226;-1.296;2023-04-24T14:05:57;10;9;
73623;PMS5003;61921;53.226;-1.296;2023-04-24T14:08:22;9;8;
73623;PMS5003;61921;53.226;-1.296;2023-04-24T14:10:47;15;13;
73623;PMS5003;61921;53.226;-1.296;2023-04-24T14:13:13;9;8;
73623;PMS5003;61921;53.226;-1.296;2023-04-24T14:15:38;8;6;
73623;PMS5003;61921;53.226;-1.296;2023-04-24T14:18:04;11;9;
73623;PMS5003;61921;53.226;-1.296;2023-04-24T14:20:29;10;8;
73623;PMS5003;61921;53.226;-1.296;2023-04-24T14:22:54;8;7;
73623;PMS5003;61921;53.226;-1.296;2023-04-24T14:25:20;10;7;
73623;PMS5003;61921;53.226;-1.296;2023-04-24T14:27:45;6;6;
73623;PMS5003;61921;53.226;-1.296;2023-04-24T14:30:11;6;5;
73623;PMS5003;61921;53.226;-1.296;2023-04-24T14:32:37;10;6;
73623;PMS5003;61921;53.226;-1.296;2023-04-24T14:35:01;8;7;
73623;PMS5003;61921;53.226;-1.296;2023-04-24T14:37:27;6;6;
73623;PMS5003;61921;53.226;-1.296;2023-04-24T14:39:53;8;7;
73623;PMS5003;61921;53.226;-1.296;2023-04-24T14:42:18;5;5;
73623;PMS5003;61921;53.226;-1.296;2023-04-24T14:44:43;5;4;
73623;PMS5003;61921;53.226;-1.296;2023-04-24T14:47:08;7;6;
73623;PMS5003;61921;53.226;-1.296;2023-04-24T14:49:33;7;7;
73623;PMS5003;61921;53.226;-1.296;2023-04-24T14:51:59;5;5;
73623;PMS5003;61921;53.226;-1.296;2023-04-24T14:54:24;8;6;
73623;PMS5003;61921;53.226;-1.296;2023-04-24T14:56:50;7;6;
73623;PMS5003;61921;53.226;-1.296;2023-04-24T14:59:15;5;5;
73623;PMS5003;61921;53.226;-1.296;2023-04-24T15:01:41;4;4;
73623;PMS5003;61921;53.226;-1.296;2023-04-24T15:04:06;6;4;
73623;PMS5003;61921;53.226;-1.296;2023-04-24T15:06:32;6;6;
73623;PMS5003;61921;53.226;-1.296;2023-04-24T15:08:57;7;4;
73623;PMS5003;61921;53.226;-1.296;2023-04-24T15:11:22;10;9;
73623;PMS5003;61921;53.226;-1.296;2023-04-24T15:13:47;6;5;
73623;PMS5003;61921;53.226;-1.296;2023-04-24T15:16:14;5;4;
73623;PMS5003;61921;53.226;-1.296;2023-04-24T15:18:38;4;4;
73623;PMS5003;61921;53.226;-1.296;2023-04-24T15:21:04;6;6;
73623;PMS5003;61921;53.226;-1.296;2023-04-24T15:23:29;3;3;
73623;PMS5003;61921;53.226;-1.296;2023-04-24T15:25:54;8;6;
73623;PMS5003;61921;53.226;-1.296;2023-04-24T15:28:20;10;7;
73623;PMS5003;61921;53.226;-1.296;2023-04-24T15:30:45;7;7;
73623;PMS5003;61921;53.226;-1.296;2023-04-24T15:33:11;5;5;
73623;PMS5003;61921;53.226;-1.296;2023-04-24T15:35:36;7;5;
73623;PMS5003;61921;53.226;-1.296;2023-04-24T15:38:01;8;4;
73623;PMS5003;61921;53.226;-1.296;2023-04-24T15:40:26;5;5;
73623;PMS5003;61921;53.226;-1.296;2023-04-24T15:42:52;8;7;
73623;PMS5003;61921;53.226;-1.296;2023-04-24T15:45:17;16;8;
73623;PMS5003;61921;53.226;-1.296;2023-04-24T15:47:44;11;6;
73623;PMS5003;61921;53.226;-1.296;2023-04-24T15:50:08;6;5;
73623;PMS5003;61921;53.226;-1.296;2023-04-24T15:52:34;7;6;
73623;PMS5003;61921;53.226;-1.296;2023-04-24T15:54:59;10;6;
73623;PMS5003;61921;53.226;-1.296;2023-04-24T15:57:24;6;5;
73623;PMS5003;61921;53.226;-1.296;2023-04-24T15:59:50;14;8;
73623;PMS5003;61921;53.226;-1.296;2023-04-24T16:02:15;9;8;
73623;PMS5003;61921;53.226;-1.296;2023-04-24T16:04:41;11;8;
73623;PMS5003;61921;53.226;-1.296;2023-04-24T16:07:06;7;7;
73623;PMS5003;61921;53.226;-1.296;2023-04-24T16:09:32;10;7;
73623;PMS5003;61921;53.226;-1.296;2023-04-24T16:11:57;7;5;
73623;PMS5003;61921;53.226;-1.296;2023-04-24T16:14:23;9;6;
73623;PMS5003;61921;53.226;-1.296;2023-04-24T16:16:47;8;5;
73623;PMS5003;61921;53.226;-1.296;2023-04-24T16:19:14;13;9;
73623;PMS5003;61921;53.226;-1.296;2023-04-24T16:21:38;9;7;
73623;PMS5003;61921;53.226;-1.296;2023-04-24T16:24:04;8;8;
73623;PMS5003;61921;53.226;-1.296;2023-04-24T16:26:29;11;8;
73623;PMS5003;61921;53.226;-1.296;2023-04-24T16:28:55;10;8;